CYBW/YBW METAR and TAF weather

Enter ICAO airport designator
Station Type Date Time Source
CYBW METAR 2019/12/08 14:18 UTC NOAA

CYBW 081418Z AUTO 20003KT 1/2SM R35/2200FT/N FZFG FEW002 M19/M21 A2987 RMK VIS VRB 1/8-3 SLP205


Station Type Date Time Source
CYBW Decoded METAR 2019/12/08 14:18 UTC NOAA

Calgary / Springbank, Canada (CYBW) 51-06N 114-22W
Dec 08, 2019 - 09:18 AM EST / 2019.12.08 1418 UTC
Wind: from the SSW (200 degrees) at 3 MPH (3 KT):0
Visibility: 1/2 mile(s):0
Sky conditions: mostly clear
Weather: freezing fog
Temperature: -2 F (-19 C)
Dew Point: -5 F (-21 C)
Relative Humidity: 84%
Pressure (altimeter): 29.87 in. Hg (1011 hPa)
ob: CYBW 081418Z AUTO 20003KT 1/2SM R35/2200FT/N FZFG FEW002 M19/M21 A2987 RMK VIS VRB 1/8-3 SLP205
cycle: 14

Station Type Date Time Source
CYBW TAF 2019/12/08 13:45 UTC NOAA

TAF TAF CYBW 081242Z 0813/0901 VRB03KT P6SM FEW008 SCT030
TEMPO 0813/0814 2SM -SN BKN008 BKN030 OVC060
FM081400 22008KT P6SM FEW080
BECMG 0822/0824 30010KT
RMK FCST BASED ON AUTO OBS. NXT FCST BY 081800Z

Example: see airport list